PWSweather.com
Personal Weather Stations
Station Observations
MARRWS
Allansford VictoriaAU 3277

Allansford VictoriaAU 3277

Lat: -38.4003683814149, Lon: 142.569826841354

Elevation: 36

Station Type: Fine Offset X7062

http://home.vicnet.net.au/~marr/Weather/

Latest ConditionsUpdated 7:00:03 PM GMT+10:10 Friday, Feb 22, 2019
Currently Today's Max Today's Min Today's Average
Temperature 63.1°F17.3°C 73.4°F23.0°C 60.4°F15.8°C 66.4°F19.1°C
Dew Point 54.7°F12.6°C 55.7°F13.2°C 52.1°F11.2°C 53.4°F11.9°C
Winds 4.1 mph ESE6.6 kmh ESE 7.2 mph -11.6 kmh - - 3.1 mph 5.0 kmh
Wind Gusts 9.2 mph14.8 kmh 16.8 mph27.0 kmh - -
Humidity 74% 76% 51% 64%
Pressure 30.16 in1021.3 mb 30.17 in1021.7 mb 30.09 in1019.0 mb -
Hour Temp Dew Point Humidity Winds Wind Gusts Pressure Precip Precip Rate Daily Precip Total
07:00 PM 63.1°F17.3°C 54.7°F12.6°C 74% 4.1 mph ESE6.6 kmh ESE 9.2 mph14.8 kmh 30.16 in1021.3 mb 0.00 in0.0 mm 0.00 in0.0 mm 0.00 in0.0 mm
06:50 PM 63.3°F17.4°C 54.5°F12.5°C 73% 4.2 mph SE6.8 kmh SE 9.8 mph15.8 kmh 30.16 in1021.3 mb 0.00 in0.0 mm 0.00 in0.0 mm 0.00 in0.0 mm
06:40 PM 63.5°F17.5°C 54.7°F12.6°C 73% 5.7 mph ESE9.2 kmh ESE 9.2 mph14.8 kmh 30.16 in1021.3 mb 0.00 in0.0 mm 0.00 in0.0 mm 0.00 in0.0 mm
06:30 PM 64.2°F17.9°C 54.6°F12.6°C 71% 5.5 mph SE8.9 kmh SE 11.4 mph18.3 kmh 30.16 in1021.3 mb 0.00 in0.0 mm 0.00 in0.0 mm 0.00 in0.0 mm
06:20 PM 64.9°F18.3°C 55.7°F13.2°C 72% 5.0 mph SE8.0 kmh SE 9.8 mph15.8 kmh 30.15 in1021.0 mb 0.00 in0.0 mm 0.00 in0.0 mm 0.00 in0.0 mm
06:10 PM 65.3°F18.5°C 55.7°F13.2°C 71% 5.0 mph SE8.0 kmh SE 11.4 mph18.3 kmh 30.16 in1021.3 mb 0.00 in0.0 mm 0.00 in0.0 mm 0.00 in0.0 mm
06:00 PM 66.0°F18.9°C 54.8°F12.7°C 67% 5.0 mph SE8.0 kmh SE 13.0 mph20.9 kmh 30.16 in1021.3 mb 0.00 in0.0 mm 0.00 in0.0 mm 0.00 in0.0 mm
05:50 PM 69.1°F20.6°C 54.6°F12.6°C 60% 6.5 mph SE10.5 kmh SE 14.5 mph23.3 kmh 30.16 in1021.3 mb 0.00 in0.0 mm 0.00 in0.0 mm 0.00 in0.0 mm
05:40 PM 68.9°F20.5°C 55.4°F13.0°C 62% 6.6 mph SE10.6 kmh SE 13.0 mph20.9 kmh 30.16 in1021.3 mb 0.00 in0.0 mm 0.00 in0.0 mm 0.00 in0.0 mm
05:30 PM 68.4°F20.2°C 54.9°F12.7°C 62% 6.9 mph SE11.1 kmh SE 13.6 mph21.9 kmh 30.16 in1021.3 mb 0.00 in0.0 mm 0.00 in0.0 mm 0.00 in0.0 mm
05:20 PM 69.3°F20.7°C 54.8°F12.7°C 60% 6.0 mph SE9.7 kmh SE 14.5 mph23.3 kmh 30.16 in1021.3 mb 0.00 in0.0 mm 0.00 in0.0 mm 0.00 in0.0 mm
05:10 PM 70.2°F21.2°C 54.7°F12.6°C 58% 7.2 mph ESE11.6 kmh ESE 16.8 mph27.0 kmh 30.16 in1021.3 mb 0.00 in0.0 mm 0.00 in0.0 mm 0.00 in0.0 mm
05:00 PM 70.7°F21.5°C 55.2°F12.9°C 58% 6.0 mph ESE9.7 kmh ESE 12.1 mph19.5 kmh 30.15 in1021.0 mb 0.00 in0.0 mm 0.00 in0.0 mm 0.00 in0.0 mm
04:50 PM 70.7°F21.5°C 54.7°F12.6°C 57% 6.3 mph SE10.1 kmh SE 12.1 mph19.5 kmh 30.15 in1021.0 mb 0.00 in0.0 mm 0.00 in0.0 mm 0.00 in0.0 mm
04:40 PM 70.9°F21.6°C 53.9°F12.2°C 55% 5.4 mph ESE8.7 kmh ESE 11.4 mph18.3 kmh 30.15 in1021.0 mb 0.00 in0.0 mm 0.00 in0.0 mm 0.00 in0.0 mm
04:30 PM 71.1°F21.7°C 54.1°F12.3°C 55% 6.3 mph SE10.1 kmh SE 13.6 mph21.9 kmh 30.15 in1021.0 mb 0.00 in0.0 mm 0.00 in0.0 mm 0.00 in0.0 mm
04:20 PM 71.1°F21.7°C 54.6°F12.6°C 56% 6.3 mph SE10.1 kmh SE 14.5 mph23.3 kmh 30.15 in1021.0 mb 0.00 in0.0 mm 0.00 in0.0 mm 0.00 in0.0 mm
04:10 PM 71.1°F21.7°C 54.1°F12.3°C 55% 6.5 mph SSE10.5 kmh SSE 13.0 mph20.9 kmh 30.15 in1021.0 mb 0.00 in0.0 mm 0.00 in0.0 mm 0.00 in0.0 mm
04:00 PM 71.1°F21.7°C 53.6°F12.0°C 54% 6.0 mph SE9.7 kmh SE 15.2 mph24.5 kmh 30.15 in1021.0 mb 0.00 in0.0 mm 0.00 in0.0 mm 0.00 in0.0 mm
03:50 PM 71.2°F21.8°C 54.8°F12.7°C 56% 6.6 mph SE10.6 kmh SE 15.2 mph24.5 kmh 30.15 in1021.0 mb 0.00 in0.0 mm 0.00 in0.0 mm 0.00 in0.0 mm
03:40 PM 71.2°F21.8°C 53.8°F12.1°C 54% 5.9 mph SE9.5 kmh SE 13.6 mph21.9 kmh 30.15 in1021.0 mb 0.00 in0.0 mm 0.00 in0.0 mm 0.00 in0.0 mm
03:30 PM 71.2°F21.8°C 54.3°F12.4°C 55% 6.3 mph SE10.1 kmh SE 12.1 mph19.5 kmh 30.15 in1021.0 mb 0.00 in0.0 mm 0.00 in0.0 mm 0.00 in0.0 mm
03:20 PM 72.7°F22.6°C 54.1°F12.3°C 52% 5.7 mph SE9.2 kmh SE 13.0 mph20.9 kmh 30.15 in1021.0 mb 0.00 in0.0 mm 0.00 in0.0 mm 0.00 in0.0 mm
03:10 PM 72.7°F22.6°C 54.6°F12.6°C 53% 4.9 mph SSE7.9 kmh SSE 11.4 mph18.3 kmh 30.15 in1021.0 mb 0.00 in0.0 mm 0.00 in0.0 mm 0.00 in0.0 mm
03:00 PM 71.2°F21.8°C 53.8°F12.1°C 54% 7.0 mph SE11.3 kmh SE 13.6 mph21.9 kmh 30.16 in1021.3 mb 0.00 in0.0 mm 0.00 in0.0 mm 0.00 in0.0 mm
02:50 PM 72.7°F22.6°C 54.1°F12.3°C 52% 5.8 mph SE9.3 kmh SE 14.5 mph23.3 kmh 30.16 in1021.3 mb 0.00 in0.0 mm 0.00 in0.0 mm 0.00 in0.0 mm
02:40 PM 72.7°F22.6°C 54.6°F12.6°C 53% 5.6 mph SE9.0 kmh SE 13.6 mph21.9 kmh 30.16 in1021.3 mb 0.00 in0.0 mm 0.00 in0.0 mm 0.00 in0.0 mm
02:30 PM 72.7°F22.6°C 54.6°F12.6°C 53% 5.8 mph SE9.3 kmh SE 13.6 mph21.9 kmh 30.16 in1021.3 mb 0.00 in0.0 mm 0.00 in0.0 mm 0.00 in0.0 mm
02:20 PM 71.2°F21.8°C 53.8°F12.1°C 54% 5.5 mph SE8.9 kmh SE 12.1 mph19.5 kmh 30.16 in1021.3 mb 0.00 in0.0 mm 0.00 in0.0 mm 0.00 in0.0 mm
02:10 PM 72.7°F22.6°C 55.1°F12.8°C 54% 5.5 mph SE8.9 kmh SE 13.0 mph20.9 kmh 30.16 in1021.3 mb 0.00 in0.0 mm 0.00 in0.0 mm 0.00 in0.0 mm
02:00 PM 73.4°F23.0°C 55.3°F12.9°C 53% 5.3 mph SE8.5 kmh SE 11.4 mph18.3 kmh 30.16 in1021.3 mb 0.00 in0.0 mm 0.00 in0.0 mm 0.00 in0.0 mm
01:50 PM 72.9°F22.7°C 54.8°F12.7°C 53% 5.7 mph SSE9.2 kmh SSE 13.6 mph21.9 kmh 30.16 in1021.3 mb 0.00 in0.0 mm 0.00 in0.0 mm 0.00 in0.0 mm
01:40 PM 71.2°F21.8°C 53.8°F12.1°C 54% 5.8 mph SE9.3 kmh SE 13.0 mph20.9 kmh 30.16 in1021.3 mb 0.00 in0.0 mm 0.00 in0.0 mm 0.00 in0.0 mm
01:30 PM 71.2°F21.8°C 53.8°F12.1°C 54% 6.5 mph SE10.5 kmh SE 13.0 mph20.9 kmh 30.17 in1021.7 mb 0.00 in0.0 mm 0.00 in0.0 mm 0.00 in0.0 mm
01:20 PM 71.2°F21.8°C 53.3°F11.8°C 53% 5.8 mph SE9.3 kmh SE 13.6 mph21.9 kmh 30.17 in1021.7 mb 0.00 in0.0 mm 0.00 in0.0 mm 0.00 in0.0 mm
01:10 PM 72.7°F22.6°C 53.5°F11.9°C 51% 5.5 mph SE8.9 kmh SE 10.7 mph17.2 kmh 30.17 in1021.7 mb 0.00 in0.0 mm 0.00 in0.0 mm 0.00 in0.0 mm
01:00 PM 72.9°F22.7°C 54.2°F12.3°C 52% 5.3 mph SE8.5 kmh SE 12.1 mph19.5 kmh 30.16 in1021.3 mb 0.00 in0.0 mm 0.00 in0.0 mm 0.00 in0.0 mm
12:50 PM 72.9°F22.7°C 54.2°F12.3°C 52% 4.8 mph SE7.7 kmh SE 9.8 mph15.8 kmh 30.17 in1021.7 mb 0.00 in0.0 mm 0.00 in0.0 mm 0.00 in0.0 mm
12:40 PM 72.7°F22.6°C 53.5°F11.9°C 51% 5.2 mph SE8.4 kmh SE 12.1 mph19.5 kmh 30.17 in1021.7 mb 0.00 in0.0 mm 0.00 in0.0 mm 0.00 in0.0 mm
12:30 PM 72.9°F22.7°C 53.7°F12.1°C 51% 4.3 mph SSE6.9 kmh SSE 10.7 mph17.2 kmh 30.17 in1021.7 mb 0.00 in0.0 mm 0.00 in0.0 mm 0.00 in0.0 mm
12:20 PM 72.9°F22.7°C 53.7°F12.1°C 51% 4.2 mph SSE6.8 kmh SSE 10.7 mph17.2 kmh 30.17 in1021.7 mb 0.00 in0.0 mm 0.00 in0.0 mm 0.00 in0.0 mm
12:10 PM 72.7°F22.6°C 53.5°F11.9°C 51% 4.7 mph SE7.6 kmh SE 12.1 mph19.5 kmh 30.16 in1021.3 mb 0.00 in0.0 mm 0.00 in0.0 mm 0.00 in0.0 mm
12:00 PM 72.7°F22.6°C 53.5°F11.9°C 51% 4.6 mph SE7.4 kmh SE 13.6 mph21.9 kmh 30.17 in1021.7 mb 0.00 in0.0 mm 0.00 in0.0 mm 0.00 in0.0 mm
11:50 AM 72.7°F22.6°C 53.5°F11.9°C 51% 4.5 mph SE7.2 kmh SE 12.1 mph19.5 kmh 30.17 in1021.7 mb 0.00 in0.0 mm 0.00 in0.0 mm 0.00 in0.0 mm
11:40 AM 71.2°F21.8°C 53.3°F11.8°C 53% 4.1 mph SE6.6 kmh SE 9.8 mph15.8 kmh 30.17 in1021.7 mb 0.00 in0.0 mm 0.00 in0.0 mm 0.00 in0.0 mm
11:30 AM 72.9°F22.7°C 53.7°F12.1°C 51% 3.5 mph ESE5.6 kmh ESE 8.3 mph13.4 kmh 30.16 in1021.3 mb 0.00 in0.0 mm 0.00 in0.0 mm 0.00 in0.0 mm
11:20 AM 72.7°F22.6°C 54.1°F12.3°C 52% 4.9 mph SE7.9 kmh SE 9.8 mph15.8 kmh 30.17 in1021.7 mb 0.00 in0.0 mm 0.00 in0.0 mm 0.00 in0.0 mm
11:10 AM 72.5°F22.5°C 53.9°F12.2°C 52% 4.0 mph ESE6.4 kmh ESE 9.8 mph15.8 kmh 30.17 in1021.7 mb 0.00 in0.0 mm 0.00 in0.0 mm 0.00 in0.0 mm
11:00 AM 70.9°F21.6°C 53.4°F11.9°C 54% 3.7 mph SE6.0 kmh SE 9.2 mph14.8 kmh 30.17 in1021.7 mb 0.00 in0.0 mm 0.00 in0.0 mm 0.00 in0.0 mm
10:50 AM 70.9°F21.6°C 53.4°F11.9°C 54% 4.5 mph SE7.2 kmh SE 10.7 mph17.2 kmh 30.17 in1021.7 mb 0.00 in0.0 mm 0.00 in0.0 mm 0.00 in0.0 mm
10:40 AM 70.9°F21.6°C 53.9°F12.2°C 55% 3.5 mph SE5.6 kmh SE 8.3 mph13.4 kmh 30.17 in1021.7 mb 0.00 in0.0 mm 0.00 in0.0 mm 0.00 in0.0 mm
10:30 AM 70.9°F21.6°C 54.4°F12.4°C 56% 3.3 mph SE5.3 kmh SE 9.2 mph14.8 kmh 30.17 in1021.7 mb 0.00 in0.0 mm 0.00 in0.0 mm 0.00 in0.0 mm
10:20 AM 73.2°F22.9°C 54.0°F12.2°C 51% 3.0 mph SE4.8 kmh SE 10.7 mph17.2 kmh 30.17 in1021.7 mb 0.00 in0.0 mm 0.00 in0.0 mm 0.00 in0.0 mm
10:10 AM 72.5°F22.5°C 53.4°F11.9°C 51% 2.3 mph E3.7 kmh E 6.9 mph11.1 kmh 30.17 in1021.7 mb 0.00 in0.0 mm 0.00 in0.0 mm 0.00 in0.0 mm
10:00 AM 70.5°F21.4°C 53.6°F12.0°C 55% 2.4 mph SE3.9 kmh SE 6.0 mph9.7 kmh 30.16 in1021.3 mb 0.00 in0.0 mm 0.00 in0.0 mm 0.00 in0.0 mm
09:50 AM 69.4°F20.8°C 54.0°F12.2°C 58% 3.1 mph SE5.0 kmh SE 6.0 mph9.7 kmh 30.16 in1021.3 mb 0.00 in0.0 mm 0.00 in0.0 mm 0.00 in0.0 mm
09:40 AM 70.5°F21.4°C 53.1°F11.7°C 54% 2.6 mph E4.2 kmh E 7.6 mph12.2 kmh 30.16 in1021.3 mb 0.00 in0.0 mm 0.00 in0.0 mm 0.00 in0.0 mm
09:30 AM 70.3°F21.3°C 53.4°F11.9°C 55% 1.7 mph SE2.7 kmh SE 5.4 mph8.7 kmh 30.16 in1021.3 mb 0.00 in0.0 mm 0.00 in0.0 mm 0.00 in0.0 mm
09:20 AM 69.6°F20.9°C 53.3°F11.8°C 56% 2.4 mph E3.9 kmh E 6.9 mph11.1 kmh 30.16 in1021.3 mb 0.00 in0.0 mm 0.00 in0.0 mm 0.00 in0.0 mm
09:10 AM 69.3°F20.7°C 52.9°F11.6°C 56% 2.5 mph E4.0 kmh E 6.9 mph11.1 kmh 30.15 in1021.0 mb 0.00 in0.0 mm 0.00 in0.0 mm 0.00 in0.0 mm
09:00 AM 68.9°F20.5°C 52.6°F11.4°C 56% 2.5 mph ENE4.0 kmh ENE 8.3 mph13.4 kmh 30.15 in1021.0 mb 0.00 in0.0 mm 0.00 in0.0 mm 0.00 in0.0 mm
08:50 AM 68.9°F20.5°C 52.6°F11.4°C 56% 2.6 mph E4.2 kmh E 7.6 mph12.2 kmh 30.15 in1021.0 mb 0.00 in0.0 mm 0.00 in0.0 mm 0.00 in0.0 mm
08:40 AM 68.0°F20.0°C 53.6°F12.0°C 60% 1.5 mph E2.4 kmh E 5.4 mph8.7 kmh 30.15 in1021.0 mb 0.00 in0.0 mm 0.00 in0.0 mm 0.00 in0.0 mm
08:30 AM 65.8°F18.8°C 52.9°F11.6°C 63% 2.6 mph ENE4.2 kmh ENE 6.0 mph9.7 kmh 30.15 in1021.0 mb 0.00 in0.0 mm 0.00 in0.0 mm 0.00 in0.0 mm
08:20 AM 65.7°F18.7°C 53.2°F11.8°C 64% 2.4 mph NE3.9 kmh NE 6.0 mph9.7 kmh 30.15 in1021.0 mb 0.00 in0.0 mm 0.00 in0.0 mm 0.00 in0.0 mm
08:10 AM 64.9°F18.3°C 53.3°F11.8°C 66% 1.9 mph NE3.1 kmh NE 6.0 mph9.7 kmh 30.14 in1020.7 mb 0.00 in0.0 mm 0.00 in0.0 mm 0.00 in0.0 mm
08:00 AM 64.4°F18.0°C 52.4°F11.3°C 65% 2.3 mph ENE3.7 kmh ENE 6.0 mph9.7 kmh 30.14 in1020.7 mb 0.00 in0.0 mm 0.00 in0.0 mm 0.00 in0.0 mm
07:50 AM 63.7°F17.6°C 52.9°F11.6°C 68% 2.0 mph NE3.2 kmh NE 5.4 mph8.7 kmh 30.14 in1020.7 mb 0.00 in0.0 mm 0.00 in0.0 mm 0.00 in0.0 mm
07:40 AM 63.0°F17.2°C 52.6°F11.4°C 69% 3.7 mph NE6.0 kmh NE 8.3 mph13.4 kmh 30.14 in1020.7 mb 0.00 in0.0 mm 0.00 in0.0 mm 0.00 in0.0 mm
07:30 AM 63.0°F17.2°C 52.6°F11.4°C 69% 2.0 mph NE3.2 kmh NE 6.0 mph9.7 kmh 30.13 in1020.3 mb 0.00 in0.0 mm 0.00 in0.0 mm 0.00 in0.0 mm
07:20 AM 62.4°F16.9°C 52.9°F11.6°C 71% 1.0 mph E1.6 kmh E 3.8 mph6.1 kmh 30.13 in1020.3 mb 0.00 in0.0 mm 0.00 in0.0 mm 0.00 in0.0 mm
07:10 AM 61.7°F16.5°C 52.6°F11.4°C 72% 0.5 mph SE0.8 kmh SE 3.1 mph5.0 kmh 30.13 in1020.3 mb 0.00 in0.0 mm 0.00 in0.0 mm 0.00 in0.0 mm
07:00 AM 61.2°F16.2°C 52.5°F11.4°C 73% 0.9 mph E1.4 kmh E 4.5 mph7.2 kmh 30.13 in1020.3 mb 0.00 in0.0 mm 0.00 in0.0 mm 0.00 in0.0 mm
06:50 AM 61.0°F16.1°C 52.3°F11.3°C 73% 1.4 mph ENE2.3 kmh ENE 3.8 mph6.1 kmh 30.12 in1020.0 mb 0.00 in0.0 mm 0.00 in0.0 mm 0.00 in0.0 mm
06:40 AM 60.8°F16.0°C 52.1°F11.2°C 73% 1.0 mph ENE1.6 kmh ENE 3.8 mph6.1 kmh 30.12 in1020.0 mb 0.00 in0.0 mm 0.00 in0.0 mm 0.00 in0.0 mm
06:30 AM 60.8°F16.0°C 52.5°F11.4°C 74% 1.8 mph ENE2.9 kmh ENE 4.5 mph7.2 kmh 30.12 in1020.0 mb 0.00 in0.0 mm 0.00 in0.0 mm 0.00 in0.0 mm
06:20 AM 60.4°F15.8°C 52.5°F11.4°C 75% 1.4 mph NE2.3 kmh NE 3.8 mph6.1 kmh 30.12 in1020.0 mb 0.00 in0.0 mm 0.00 in0.0 mm 0.00 in0.0 mm
06:10 AM 60.4°F15.8°C 52.9°F11.6°C 76% 1.5 mph NE2.4 kmh NE 4.5 mph7.2 kmh 30.11 in1019.6 mb 0.00 in0.0 mm 0.00 in0.0 mm 0.00 in0.0 mm
06:00 AM 60.4°F15.8°C 52.5°F11.4°C 75% 1.0 mph NE1.6 kmh NE 3.8 mph6.1 kmh 30.11 in1019.6 mb 0.00 in0.0 mm 0.00 in0.0 mm 0.00 in0.0 mm
05:50 AM 60.6°F15.9°C 52.7°F11.5°C 75% 0.7 mph E1.1 kmh E 4.5 mph7.2 kmh 30.11 in1019.6 mb 0.00 in0.0 mm 0.00 in0.0 mm 0.00 in0.0 mm
05:40 AM 60.6°F15.9°C 52.7°F11.5°C 75% 0.1 mph E0.2 kmh E 2.2 mph3.5 kmh 30.11 in1019.6 mb 0.00 in0.0 mm 0.00 in0.0 mm 0.00 in0.0 mm
05:30 AM 60.6°F15.9°C 52.7°F11.5°C 75% 0.2 mph ESE0.3 kmh ESE 1.6 mph2.6 kmh 30.10 in1019.3 mb 0.00 in0.0 mm 0.00 in0.0 mm 0.00 in0.0 mm
05:20 AM 60.6°F15.9°C 52.7°F11.5°C 75% Calm Calm 1.6 mph2.6 kmh 30.10 in1019.3 mb 0.00 in0.0 mm 0.00 in0.0 mm 0.00 in0.0 mm
05:10 AM 60.6°F15.9°C 52.7°F11.5°C 75% Calm Calm -- 30.10 in1019.3 mb 0.00 in0.0 mm 0.00 in0.0 mm 0.00 in0.0 mm
05:00 AM 60.6°F15.9°C 52.3°F11.3°C 74% Calm Calm -- 30.10 in1019.3 mb 0.00 in0.0 mm 0.00 in0.0 mm 0.00 in0.0 mm
04:50 AM 60.6°F15.9°C 52.3°F11.3°C 74% Calm Calm -- 30.09 in1019.0 mb 0.00 in0.0 mm 0.00 in0.0 mm 0.00 in0.0 mm
04:40 AM 60.6°F15.9°C 52.3°F11.3°C 74% Calm Calm -- 30.09 in1019.0 mb 0.00 in0.0 mm 0.00 in0.0 mm 0.00 in0.0 mm
04:30 AM 60.6°F15.9°C 52.3°F11.3°C 74% Calm Calm -- 30.09 in1019.0 mb 0.00 in0.0 mm 0.00 in0.0 mm 0.00 in0.0 mm
04:20 AM 60.6°F15.9°C 52.3°F11.3°C 74% Calm Calm 0.7 mph1.1 kmh 30.09 in1019.0 mb 0.00 in0.0 mm 0.00 in0.0 mm 0.00 in0.0 mm
04:10 AM 60.6°F15.9°C 52.3°F11.3°C 74% Calm Calm 0.7 mph1.1 kmh 30.09 in1019.0 mb 0.00 in0.0 mm 0.00 in0.0 mm 0.00 in0.0 mm
04:00 AM 60.6°F15.9°C 52.3°F11.3°C 74% Calm Calm -- 30.09 in1019.0 mb 0.00 in0.0 mm 0.00 in0.0 mm 0.00 in0.0 mm
03:50 AM 60.6°F15.9°C 52.3°F11.3°C 74% Calm Calm -- 30.09 in1019.0 mb 0.00 in0.0 mm 0.00 in0.0 mm 0.00 in0.0 mm
03:40 AM 60.6°F15.9°C 52.3°F11.3°C 74% Calm Calm -- 30.09 in1019.0 mb 0.00 in0.0 mm 0.00 in0.0 mm 0.00 in0.0 mm
03:30 AM 60.8°F16.0°C 52.1°F11.2°C 73% Calm Calm -- 30.10 in1019.3 mb 0.00 in0.0 mm 0.00 in0.0 mm 0.00 in0.0 mm
03:20 AM 60.8°F16.0°C 52.1°F11.2°C 73% Calm Calm 2.2 mph3.5 kmh 30.10 in1019.3 mb 0.00 in0.0 mm 0.00 in0.0 mm 0.00 in0.0 mm
03:10 AM 60.8°F16.0°C 52.1°F11.2°C 73% 0.5 mph E0.8 kmh E 2.2 mph3.5 kmh 30.10 in1019.3 mb 0.00 in0.0 mm 0.00 in0.0 mm 0.00 in0.0 mm
03:00 AM 60.8°F16.0°C 52.1°F11.2°C 73% 0.4 mph E0.6 kmh E 3.1 mph5.0 kmh 30.10 in1019.3 mb 0.00 in0.0 mm 0.00 in0.0 mm 0.00 in0.0 mm
02:50 AM 60.8°F16.0°C 52.1°F11.2°C 73% 0.5 mph E0.8 kmh E 3.8 mph6.1 kmh 30.10 in1019.3 mb 0.00 in0.0 mm 0.00 in0.0 mm 0.00 in0.0 mm
02:40 AM 61.0°F16.1°C 52.3°F11.3°C 73% 0.6 mph SE1.0 kmh SE 3.8 mph6.1 kmh 30.09 in1019.0 mb 0.00 in0.0 mm 0.00 in0.0 mm 0.00 in0.0 mm
02:30 AM 61.0°F16.1°C 52.3°F11.3°C 73% 0.3 mph SE0.5 kmh SE 2.2 mph3.5 kmh 30.09 in1019.0 mb 0.00 in0.0 mm 0.00 in0.0 mm 0.00 in0.0 mm
02:20 AM 60.6°F15.9°C 52.3°F11.3°C 74% Calm Calm -- 30.09 in1019.0 mb 0.00 in0.0 mm 0.00 in0.0 mm 0.00 in0.0 mm
02:10 AM 60.4°F15.8°C 52.1°F11.2°C 74% 0.4 mph SE0.6 kmh SE 2.2 mph3.5 kmh 30.09 in1019.0 mb 0.00 in0.0 mm 0.00 in0.0 mm 0.00 in0.0 mm
02:00 AM 60.6°F15.9°C 52.3°F11.3°C 74% 0.8 mph E1.3 kmh E 3.8 mph6.1 kmh 30.09 in1019.0 mb 0.00 in0.0 mm 0.00 in0.0 mm 0.00 in0.0 mm
01:50 AM 60.8°F16.0°C 52.1°F11.2°C 73% 1.6 mph SE2.6 kmh SE 4.5 mph7.2 kmh 30.10 in1019.3 mb 0.00 in0.0 mm 0.00 in0.0 mm 0.00 in0.0 mm
01:40 AM 60.8°F16.0°C 52.1°F11.2°C 73% 1.7 mph ESE2.7 kmh ESE 5.4 mph8.7 kmh 30.10 in1019.3 mb 0.00 in0.0 mm 0.00 in0.0 mm 0.00 in0.0 mm
01:30 AM 61.0°F16.1°C 52.6°F11.4°C 74% 2.7 mph SE4.3 kmh SE 5.4 mph8.7 kmh 30.10 in1019.3 mb 0.00 in0.0 mm 0.00 in0.0 mm 0.00 in0.0 mm
01:20 AM 61.3°F16.3°C 53.0°F11.7°C 74% 1.9 mph SE3.1 kmh SE 6.9 mph11.1 kmh 30.09 in1019.0 mb 0.00 in0.0 mm 0.00 in0.0 mm 0.00 in0.0 mm
01:10 AM 61.0°F16.1°C 52.6°F11.4°C 74% 1.0 mph SE1.6 kmh SE 4.5 mph7.2 kmh 30.09 in1019.0 mb 0.00 in0.0 mm 0.00 in0.0 mm 0.00 in0.0 mm
01:00 AM 61.2°F16.2°C 52.8°F11.6°C 74% 0.5 mph ESE0.8 kmh ESE 3.1 mph5.0 kmh 30.09 in1019.0 mb 0.00 in0.0 mm 0.00 in0.0 mm 0.00 in0.0 mm
12:50 AM 61.5°F16.4°C 53.2°F11.8°C 74% 1.5 mph SE2.4 kmh SE 3.8 mph6.1 kmh 30.10 in1019.3 mb 0.00 in0.0 mm 0.00 in0.0 mm 0.00 in0.0 mm
12:40 AM 61.5°F16.4°C 53.2°F11.8°C 74% 1.0 mph SSE1.6 kmh SSE 3.8 mph6.1 kmh 30.10 in1019.3 mb 0.00 in0.0 mm 0.00 in0.0 mm 0.00 in0.0 mm
12:30 AM 61.2°F16.2°C 52.8°F11.6°C 74% 1.8 mph SE2.9 kmh SE 6.0 mph9.7 kmh 30.10 in1019.3 mb 0.00 in0.0 mm 0.00 in0.0 mm 0.00 in0.0 mm
12:20 AM 61.2°F16.2°C 52.8°F11.6°C 74% 1.6 mph SE2.6 kmh SE 4.5 mph7.2 kmh 30.10 in1019.3 mb 0.00 in0.0 mm 0.00 in0.0 mm 0.00 in0.0 mm
12:10 AM 61.2°F16.2°C 52.8°F11.6°C 74% 1.4 mph ESE2.3 kmh ESE 3.8 mph6.1 kmh 30.10 in1019.3 mb 0.00 in0.0 mm 0.00 in0.0 mm 0.00 in0.0 mm
12:00 AM 61.0°F16.1°C 52.6°F11.4°C 74% 2.1 mph ESE3.4 kmh ESE 6.0 mph9.7 kmh 30.11 in1019.6 mb 0.00 in0.0 mm 0.00 in0.0 mm 0.00 in0.0 mm